sensor_id;sensor_type;location;lat;lon;timestamp;P1;durP1;ratioP1;P2;durP2;ratioP2
11076;SDS011;5591;42.626;23.380;2023-01-23T00:00:41;5.63;;;4.20;;
11076;SDS011;5591;42.626;23.380;2023-01-23T00:03:12;4.30;;;3.90;;
11076;SDS011;5591;42.626;23.380;2023-01-23T00:05:39;5.93;;;4.83;;
11076;SDS011;5591;42.626;23.380;2023-01-23T00:08:06;7.20;;;4.47;;
11076;SDS011;5591;42.626;23.380;2023-01-23T00:10:33;6.60;;;4.40;;
11076;SDS011;5591;42.626;23.380;2023-01-23T00:12:59;5.80;;;4.87;;
11076;SDS011;5591;42.626;23.380;2023-01-23T00:15:26;5.90;;;5.30;;
11076;SDS011;5591;42.626;23.380;2023-01-23T00:17:54;9.00;;;4.97;;
11076;SDS011;5591;42.626;23.380;2023-01-23T00:20:22;7.47;;;5.77;;
11076;SDS011;5591;42.626;23.380;2023-01-23T00:22:49;5.77;;;4.90;;
11076;SDS011;5591;42.626;23.380;2023-01-23T00:25:15;8.87;;;5.60;;
11076;SDS011;5591;42.626;23.380;2023-01-23T00:27:42;6.10;;;5.50;;
11076;SDS011;5591;42.626;23.380;2023-01-23T00:30:09;9.80;;;5.90;;
11076;SDS011;5591;42.626;23.380;2023-01-23T00:32:37;8.37;;;5.93;;
11076;SDS011;5591;42.626;23.380;2023-01-23T00:35:06;9.27;;;5.83;;
11076;SDS011;5591;42.626;23.380;2023-01-23T00:37:33;5.30;;;4.80;;
11076;SDS011;5591;42.626;23.380;2023-01-23T00:40:00;7.60;;;4.37;;
11076;SDS011;5591;42.626;23.380;2023-01-23T00:42:27;7.00;;;4.33;;
11076;SDS011;5591;42.626;23.380;2023-01-23T00:44:54;6.93;;;4.37;;
11076;SDS011;5591;42.626;23.380;2023-01-23T00:47:21;4.80;;;4.30;;
11076;SDS011;5591;42.626;23.380;2023-01-23T00:49:47;5.57;;;4.90;;
11076;SDS011;5591;42.626;23.380;2023-01-23T00:52:15;5.20;;;4.60;;
11076;SDS011;5591;42.626;23.380;2023-01-23T00:54:42;6.13;;;4.60;;
11076;SDS011;5591;42.626;23.380;2023-01-23T00:57:09;5.97;;;4.30;;
11076;SDS011;5591;42.626;23.380;2023-01-23T00:59:36;6.40;;;4.23;;
11076;SDS011;5591;42.626;23.380;2023-01-23T01:02:02;5.10;;;4.10;;
11076;SDS011;5591;42.626;23.380;2023-01-23T01:04:29;5.03;;;4.53;;
11076;SDS011;5591;42.626;23.380;2023-01-23T01:06:56;4.73;;;4.30;;
11076;SDS011;5591;42.626;23.380;2023-01-23T01:09:24;5.17;;;4.20;;
11076;SDS011;5591;42.626;23.380;2023-01-23T01:11:51;4.20;;;3.67;;
11076;SDS011;5591;42.626;23.380;2023-01-23T01:14:18;4.57;;;4.00;;
11076;SDS011;5591;42.626;23.380;2023-01-23T01:16:44;5.33;;;3.90;;
11076;SDS011;5591;42.626;23.380;2023-01-23T01:19:12;5.83;;;3.90;;
11076;SDS011;5591;42.626;23.380;2023-01-23T01:21:40;4.43;;;3.70;;
11076;SDS011;5591;42.626;23.380;2023-01-23T01:24:07;5.17;;;3.53;;
11076;SDS011;5591;42.626;23.380;2023-01-23T01:26:36;4.77;;;3.53;;
11076;SDS011;5591;42.626;23.380;2023-01-23T01:29:04;5.73;;;3.40;;
11076;SDS011;5591;42.626;23.380;2023-01-23T01:31:31;5.53;;;3.57;;
11076;SDS011;5591;42.626;23.380;2023-01-23T01:33:57;5.63;;;3.50;;
11076;SDS011;5591;42.626;23.380;2023-01-23T01:36:24;4.10;;;3.70;;
11076;SDS011;5591;42.626;23.380;2023-01-23T01:38:51;5.20;;;3.90;;
11076;SDS011;5591;42.626;23.380;2023-01-23T01:41:18;6.77;;;3.20;;
11076;SDS011;5591;42.626;23.380;2023-01-23T01:43:46;4.00;;;3.43;;
11076;SDS011;5591;42.626;23.380;2023-01-23T01:46:17;4.87;;;3.60;;
11076;SDS011;5591;42.626;23.380;2023-01-23T01:48:48;4.37;;;3.97;;
11076;SDS011;5591;42.626;23.380;2023-01-23T01:51:20;5.97;;;4.30;;
11076;SDS011;5591;42.626;23.380;2023-01-23T01:53:54;6.20;;;4.13;;
11076;SDS011;5591;42.626;23.380;2023-01-23T01:56:26;4.57;;;4.03;;
11076;SDS011;5591;42.626;23.380;2023-01-23T01:58:55;5.57;;;4.40;;
11076;SDS011;5591;42.626;23.380;2023-01-23T02:01:23;4.70;;;4.20;;
11076;SDS011;5591;42.626;23.380;2023-01-23T02:03:52;5.80;;;4.30;;
11076;SDS011;5591;42.626;23.380;2023-01-23T02:06:20;6.33;;;4.40;;
11076;SDS011;5591;42.626;23.380;2023-01-23T02:08:49;4.43;;;4.00;;
11076;SDS011;5591;42.626;23.380;2023-01-23T02:11:21;5.43;;;4.07;;
11076;SDS011;5591;42.626;23.380;2023-01-23T02:13:47;6.07;;;4.40;;
11076;SDS011;5591;42.626;23.380;2023-01-23T02:16:17;5.37;;;3.97;;
11076;SDS011;5591;42.626;23.380;2023-01-23T02:18:46;6.20;;;4.27;;
11076;SDS011;5591;42.626;23.380;2023-01-23T02:21:16;4.77;;;4.17;;
11076;SDS011;5591;42.626;23.380;2023-01-23T02:23:49;4.37;;;3.97;;
11076;SDS011;5591;42.626;23.380;2023-01-23T02:26:28;6.17;;;4.00;;
11076;SDS011;5591;42.626;23.380;2023-01-23T02:28:57;5.67;;;4.30;;
11076;SDS011;5591;42.626;23.380;2023-01-23T02:31:24;5.83;;;4.50;;
11076;SDS011;5591;42.626;23.380;2023-01-23T02:33:52;4.80;;;4.30;;
11076;SDS011;5591;42.626;23.380;2023-01-23T02:36:21;6.03;;;4.27;;
11076;SDS011;5591;42.626;23.380;2023-01-23T02:38:54;4.93;;;4.43;;
11076;SDS011;5591;42.626;23.380;2023-01-23T02:41:30;4.90;;;4.23;;
11076;SDS011;5591;42.626;23.380;2023-01-23T02:44:00;6.17;;;4.70;;
11076;SDS011;5591;42.626;23.380;2023-01-23T02:46:28;5.30;;;4.27;;
11076;SDS011;5591;42.626;23.380;2023-01-23T02:48:55;5.83;;;4.50;;
11076;SDS011;5591;42.626;23.380;2023-01-23T02:51:21;6.37;;;5.10;;
11076;SDS011;5591;42.626;23.380;2023-01-23T02:53:48;4.73;;;4.23;;
11076;SDS011;5591;42.626;23.380;2023-01-23T02:56:15;4.47;;;4.00;;
11076;SDS011;5591;42.626;23.380;2023-01-23T02:58:43;4.83;;;3.93;;
11076;SDS011;5591;42.626;23.380;2023-01-23T03:01:28;4.47;;;3.97;;
11076;SDS011;5591;42.626;23.380;2023-01-23T03:03:55;5.23;;;4.50;;
11076;SDS011;5591;42.626;23.380;2023-01-23T03:06:27;4.23;;;3.83;;
11076;SDS011;5591;42.626;23.380;2023-01-23T03:08:54;4.63;;;3.93;;
11076;SDS011;5591;42.626;23.380;2023-01-23T03:11:23;4.93;;;3.80;;
11076;SDS011;5591;42.626;23.380;2023-01-23T03:13:52;4.07;;;3.67;;
11076;SDS011;5591;42.626;23.380;2023-01-23T03:16:19;5.63;;;3.80;;
11076;SDS011;5591;42.626;23.380;2023-01-23T03:18:46;6.50;;;4.57;;
11076;SDS011;5591;42.626;23.380;2023-01-23T03:21:14;4.80;;;4.10;;
11076;SDS011;5591;42.626;23.380;2023-01-23T03:23:40;4.20;;;3.73;;
11076;SDS011;5591;42.626;23.380;2023-01-23T03:26:12;4.43;;;4.00;;
11076;SDS011;5591;42.626;23.380;2023-01-23T03:28:39;4.67;;;3.77;;
11076;SDS011;5591;42.626;23.380;2023-01-23T03:31:24;4.27;;;3.87;;
11076;SDS011;5591;42.626;23.380;2023-01-23T03:33:51;4.83;;;4.27;;
11076;SDS011;5591;42.626;23.380;2023-01-23T03:36:18;5.67;;;3.77;;
11076;SDS011;5591;42.626;23.380;2023-01-23T03:38:45;4.03;;;3.33;;
11076;SDS011;5591;42.626;23.380;2023-01-23T03:41:26;4.80;;;3.30;;
11076;SDS011;5591;42.626;23.380;2023-01-23T03:43:53;4.40;;;3.77;;
11076;SDS011;5591;42.626;23.380;2023-01-23T03:46:20;4.10;;;3.70;;
11076;SDS011;5591;42.626;23.380;2023-01-23T03:48:48;3.83;;;3.50;;
11076;SDS011;5591;42.626;23.380;2023-01-23T03:51:15;4.87;;;3.77;;
11076;SDS011;5591;42.626;23.380;2023-01-23T03:53:42;4.60;;;3.70;;
11076;SDS011;5591;42.626;23.380;2023-01-23T03:56:08;7.33;;;4.00;;
11076;SDS011;5591;42.626;23.380;2023-01-23T03:58:35;5.77;;;4.40;;
11076;SDS011;5591;42.626;23.380;2023-01-23T04:01:04;4.40;;;3.57;;
11076;SDS011;5591;42.626;23.380;2023-01-23T04:03:32;7.30;;;4.10;;
11076;SDS011;5591;42.626;23.380;2023-01-23T04:06:00;6.17;;;4.50;;
11076;SDS011;5591;42.626;23.380;2023-01-23T04:08:27;4.90;;;4.30;;
11076;SDS011;5591;42.626;23.380;2023-01-23T04:11:03;4.33;;;3.93;;
11076;SDS011;5591;42.626;23.380;2023-01-23T04:13:32;5.03;;;4.03;;
11076;SDS011;5591;42.626;23.380;2023-01-23T04:15:59;4.57;;;3.87;;
11076;SDS011;5591;42.626;23.380;2023-01-23T04:18:26;4.33;;;3.73;;
11076;SDS011;5591;42.626;23.380;2023-01-23T04:20:54;5.33;;;3.90;;
11076;SDS011;5591;42.626;23.380;2023-01-23T04:23:22;6.50;;;3.87;;
11076;SDS011;5591;42.626;23.380;2023-01-23T04:25:50;6.27;;;3.57;;
11076;SDS011;5591;42.626;23.380;2023-01-23T04:28:17;3.90;;;3.50;;
11076;SDS011;5591;42.626;23.380;2023-01-23T04:30:45;4.10;;;3.37;;
11076;SDS011;5591;42.626;23.380;2023-01-23T04:33:12;3.70;;;3.40;;
11076;SDS011;5591;42.626;23.380;2023-01-23T04:35:38;4.60;;;3.20;;
11076;SDS011;5591;42.626;23.380;2023-01-23T04:38:05;4.17;;;3.53;;
11076;SDS011;5591;42.626;23.380;2023-01-23T04:40:33;4.87;;;3.30;;
11076;SDS011;5591;42.626;23.380;2023-01-23T04:43:00;3.87;;;3.10;;
11076;SDS011;5591;42.626;23.380;2023-01-23T04:45:27;3.50;;;3.13;;
11076;SDS011;5591;42.626;23.380;2023-01-23T04:47:53;3.43;;;3.10;;
11076;SDS011;5591;42.626;23.380;2023-01-23T04:50:20;3.37;;;3.07;;
11076;SDS011;5591;42.626;23.380;2023-01-23T04:52:47;4.80;;;3.20;;
11076;SDS011;5591;42.626;23.380;2023-01-23T04:55:14;4.37;;;3.70;;
11076;SDS011;5591;42.626;23.380;2023-01-23T04:57:42;3.80;;;3.30;;
11076;SDS011;5591;42.626;23.380;2023-01-23T05:00:09;4.30;;;3.90;;
11076;SDS011;5591;42.626;23.380;2023-01-23T05:02:37;5.63;;;4.03;;
11076;SDS011;5591;42.626;23.380;2023-01-23T05:05:04;5.30;;;4.00;;
11076;SDS011;5591;42.626;23.380;2023-01-23T05:07:32;5.67;;;3.93;;
11076;SDS011;5591;42.626;23.380;2023-01-23T05:09:59;5.00;;;4.27;;
11076;SDS011;5591;42.626;23.380;2023-01-23T05:12:25;4.77;;;3.90;;
11076;SDS011;5591;42.626;23.380;2023-01-23T05:14:53;5.20;;;4.53;;
11076;SDS011;5591;42.626;23.380;2023-01-23T05:17:20;5.40;;;4.50;;
11076;SDS011;5591;42.626;23.380;2023-01-23T05:19:47;5.80;;;4.93;;
11076;SDS011;5591;42.626;23.380;2023-01-23T05:22:14;8.10;;;6.67;;
11076;SDS011;5591;42.626;23.380;2023-01-23T05:24:41;7.27;;;5.63;;
11076;SDS011;5591;42.626;23.380;2023-01-23T05:27:08;6.80;;;5.77;;
11076;SDS011;5591;42.626;23.380;2023-01-23T05:29:35;5.83;;;4.57;;
11076;SDS011;5591;42.626;23.380;2023-01-23T05:32:03;5.87;;;4.83;;
11076;SDS011;5591;42.626;23.380;2023-01-23T05:34:31;4.63;;;4.07;;
11076;SDS011;5591;42.626;23.380;2023-01-23T05:36:57;6.03;;;4.67;;
11076;SDS011;5591;42.626;23.380;2023-01-23T05:39:24;4.53;;;3.97;;
11076;SDS011;5591;42.626;23.380;2023-01-23T05:41:51;6.23;;;3.70;;
11076;SDS011;5591;42.626;23.380;2023-01-23T05:44:18;5.67;;;3.50;;
11076;SDS011;5591;42.626;23.380;2023-01-23T05:46:44;3.90;;;3.50;;
11076;SDS011;5591;42.626;23.380;2023-01-23T05:49:12;4.20;;;3.43;;
11076;SDS011;5591;42.626;23.380;2023-01-23T05:51:39;3.10;;;2.80;;
11076;SDS011;5591;42.626;23.380;2023-01-23T05:54:06;4.97;;;3.60;;
11076;SDS011;5591;42.626;23.380;2023-01-23T05:56:33;4.07;;;3.30;;
11076;SDS011;5591;42.626;23.380;2023-01-23T05:58:59;3.43;;;2.70;;
11076;SDS011;5591;42.626;23.380;2023-01-23T06:01:27;3.77;;;3.43;;
11076;SDS011;5591;42.626;23.380;2023-01-23T06:03:54;3.37;;;2.60;;
11076;SDS011;5591;42.626;23.380;2023-01-23T06:06:22;3.00;;;2.60;;
11076;SDS011;5591;42.626;23.380;2023-01-23T06:08:49;4.30;;;3.30;;
11076;SDS011;5591;42.626;23.380;2023-01-23T06:11:16;4.10;;;2.93;;
11076;SDS011;5591;42.626;23.380;2023-01-23T06:13:42;3.80;;;2.90;;
11076;SDS011;5591;42.626;23.380;2023-01-23T06:16:09;3.40;;;2.47;;
11076;SDS011;5591;42.626;23.380;2023-01-23T06:18:36;4.37;;;2.60;;
11076;SDS011;5591;42.626;23.380;2023-01-23T06:21:03;3.50;;;2.73;;
11076;SDS011;5591;42.626;23.380;2023-01-23T06:23:31;3.67;;;2.73;;
11076;SDS011;5591;42.626;23.380;2023-01-23T06:25:59;3.20;;;2.90;;
11076;SDS011;5591;42.626;23.380;2023-01-23T06:28:26;5.13;;;2.80;;
11076;SDS011;5591;42.626;23.380;2023-01-23T06:30:53;3.50;;;3.20;;
11076;SDS011;5591;42.626;23.380;2023-01-23T06:33:20;4.87;;;3.33;;
11076;SDS011;5591;42.626;23.380;2023-01-23T06:35:47;4.67;;;3.27;;
11076;SDS011;5591;42.626;23.380;2023-01-23T06:38:14;5.80;;;3.30;;
11076;SDS011;5591;42.626;23.380;2023-01-23T06:40:42;3.90;;;3.30;;
11076;SDS011;5591;42.626;23.380;2023-01-23T06:43:09;5.80;;;3.80;;
11076;SDS011;5591;42.626;23.380;2023-01-23T06:45:36;5.80;;;4.77;;
11076;SDS011;5591;42.626;23.380;2023-01-23T06:48:02;6.50;;;4.70;;
11076;SDS011;5591;42.626;23.380;2023-01-23T06:50:29;5.47;;;4.50;;
11076;SDS011;5591;42.626;23.380;2023-01-23T06:52:56;7.10;;;5.07;;
11076;SDS011;5591;42.626;23.380;2023-01-23T06:55:23;7.43;;;4.67;;
11076;SDS011;5591;42.626;23.380;2023-01-23T08:05:02;9.37;;;6.63;;
11076;SDS011;5591;42.626;23.380;2023-01-23T08:07:29;8.27;;;6.27;;
11076;SDS011;5591;42.626;23.380;2023-01-23T08:09:56;7.03;;;6.20;;
11076;SDS011;5591;42.626;23.380;2023-01-23T08:12:23;7.00;;;5.90;;
11076;SDS011;5591;42.626;23.380;2023-01-23T08:14:50;6.43;;;5.70;;
11076;SDS011;5591;42.626;23.380;2023-01-23T08:17:17;6.60;;;5.67;;
11076;SDS011;5591;42.626;23.380;2023-01-23T08:19:43;7.07;;;5.83;;
11076;SDS011;5591;42.626;23.380;2023-01-23T08:22:12;6.67;;;5.63;;
11076;SDS011;5591;42.626;23.380;2023-01-23T08:24:38;7.43;;;5.47;;
11076;SDS011;5591;42.626;23.380;2023-01-23T08:27:05;8.57;;;6.93;;
11076;SDS011;5591;42.626;23.380;2023-01-23T08:29:32;7.13;;;5.43;;
11076;SDS011;5591;42.626;23.380;2023-01-23T08:31:59;6.60;;;5.90;;
11076;SDS011;5591;42.626;23.380;2023-01-23T08:34:26;7.07;;;4.87;;
11076;SDS011;5591;42.626;23.380;2023-01-23T08:36:52;7.43;;;5.17;;
11076;SDS011;5591;42.626;23.380;2023-01-23T08:39:21;6.73;;;5.00;;
11076;SDS011;5591;42.626;23.380;2023-01-23T08:41:48;6.80;;;4.93;;
11076;SDS011;5591;42.626;23.380;2023-01-23T08:44:15;7.90;;;5.07;;
11076;SDS011;5591;42.626;23.380;2023-01-23T08:46:42;6.47;;;5.20;;
11076;SDS011;5591;42.626;23.380;2023-01-23T08:49:10;7.30;;;4.97;;
11076;SDS011;5591;42.626;23.380;2023-01-23T08:51:37;6.23;;;4.87;;
11076;SDS011;5591;42.626;23.380;2023-01-23T08:54:04;5.20;;;4.70;;
11076;SDS011;5591;42.626;23.380;2023-01-23T08:56:32;5.67;;;5.00;;
11076;SDS011;5591;42.626;23.380;2023-01-23T08:58:59;5.90;;;4.37;;
11076;SDS011;5591;42.626;23.380;2023-01-23T09:01:25;18.83;;;4.83;;
11076;SDS011;5591;42.626;23.380;2023-01-23T09:03:53;6.43;;;5.00;;
11076;SDS011;5591;42.626;23.380;2023-01-23T09:06:20;6.40;;;4.73;;
11076;SDS011;5591;42.626;23.380;2023-01-23T09:08:48;4.47;;;4.03;;
11076;SDS011;5591;42.626;23.380;2023-01-23T09:11:15;6.23;;;4.63;;
11076;SDS011;5591;42.626;23.380;2023-01-23T09:13:45;5.67;;;4.40;;
11076;SDS011;5591;42.626;23.380;2023-01-23T09:16:12;4.53;;;3.70;;
11076;SDS011;5591;42.626;23.380;2023-01-23T09:18:39;4.17;;;3.47;;
11076;SDS011;5591;42.626;23.380;2023-01-23T09:21:06;4.67;;;3.67;;
11076;SDS011;5591;42.626;23.380;2023-01-23T09:23:34;4.97;;;3.93;;
11076;SDS011;5591;42.626;23.380;2023-01-23T09:26:01;5.57;;;4.00;;
11076;SDS011;5591;42.626;23.380;2023-01-23T09:28:29;8.87;;;4.20;;
11076;SDS011;5591;42.626;23.380;2023-01-23T09:31:00;6.57;;;5.23;;
11076;SDS011;5591;42.626;23.380;2023-01-23T09:33:27;4.70;;;4.20;;
11076;SDS011;5591;42.626;23.380;2023-01-23T09:35:54;5.50;;;4.30;;
11076;SDS011;5591;42.626;23.380;2023-01-23T09:38:21;6.33;;;4.80;;
11076;SDS011;5591;42.626;23.380;2023-01-23T09:40:49;7.80;;;4.80;;
11076;SDS011;5591;42.626;23.380;2023-01-23T09:43:19;6.47;;;4.17;;
11076;SDS011;5591;42.626;23.380;2023-01-23T09:45:52;5.17;;;4.57;;
11076;SDS011;5591;42.626;23.380;2023-01-23T09:48:29;6.77;;;5.07;;
11076;SDS011;5591;42.626;23.380;2023-01-23T09:51:01;5.90;;;5.00;;
11076;SDS011;5591;42.626;23.380;2023-01-23T09:53:33;5.97;;;4.93;;
11076;SDS011;5591;42.626;23.380;2023-01-23T09:56:03;7.17;;;5.53;;
11076;SDS011;5591;42.626;23.380;2023-01-23T09:58:39;7.47;;;5.17;;
11076;SDS011;5591;42.626;23.380;2023-01-23T10:01:13;6.40;;;5.47;;
11076;SDS011;5591;42.626;23.380;2023-01-23T10:03:40;10.43;;;6.10;;
11076;SDS011;5591;42.626;23.380;2023-01-23T10:06:11;12.10;;;10.50;;
11076;SDS011;5591;42.626;23.380;2023-01-23T10:08:48;6.57;;;5.43;;
11076;SDS011;5591;42.626;23.380;2023-01-23T10:11:27;6.50;;;5.50;;
11076;SDS011;5591;42.626;23.380;2023-01-23T10:14:06;5.30;;;4.57;;
11076;SDS011;5591;42.626;23.380;2023-01-23T10:16:54;5.93;;;5.23;;
11076;SDS011;5591;42.626;23.380;2023-01-23T10:19:39;8.03;;;6.17;;
11076;SDS011;5591;42.626;23.380;2023-01-23T10:22:20;7.07;;;5.73;;
11076;SDS011;5591;42.626;23.380;2023-01-23T10:24:59;8.50;;;5.70;;
11076;SDS011;5591;42.626;23.380;2023-01-23T10:27:30;7.93;;;6.53;;
11076;SDS011;5591;42.626;23.380;2023-01-23T10:29:59;8.73;;;6.73;;
11076;SDS011;5591;42.626;23.380;2023-01-23T10:32:31;9.27;;;7.73;;
11076;SDS011;5591;42.626;23.380;2023-01-23T10:35:15;7.40;;;6.20;;
11076;SDS011;5591;42.626;23.380;2023-01-23T10:37:46;7.13;;;6.33;;
11076;SDS011;5591;42.626;23.380;2023-01-23T10:40:17;9.27;;;6.60;;
11076;SDS011;5591;42.626;23.380;2023-01-23T10:43:09;8.27;;;7.27;;
11076;SDS011;5591;42.626;23.380;2023-01-23T10:45:38;9.73;;;7.80;;
11076;SDS011;5591;42.626;23.380;2023-01-23T10:51:04;8.70;;;6.50;;
11076;SDS011;5591;42.626;23.380;2023-01-23T10:54:03;9.10;;;7.27;;
11076;SDS011;5591;42.626;23.380;2023-01-23T10:56:50;8.63;;;7.03;;
11076;SDS011;5591;42.626;23.380;2023-01-23T10:59:23;8.53;;;7.30;;
11076;SDS011;5591;42.626;23.380;2023-01-23T11:02:01;9.73;;;7.87;;
11076;SDS011;5591;42.626;23.380;2023-01-23T11:04:44;10.07;;;8.10;;
11076;SDS011;5591;42.626;23.380;2023-01-23T11:07:13;9.20;;;7.47;;
11076;SDS011;5591;42.626;23.380;2023-01-23T11:09:44;9.10;;;7.53;;
11076;SDS011;5591;42.626;23.380;2023-01-23T11:12:18;10.60;;;8.43;;
11076;SDS011;5591;42.626;23.380;2023-01-23T11:14:46;11.20;;;9.70;;
11076;SDS011;5591;42.626;23.380;2023-01-23T11:17:15;8.50;;;7.60;;
11076;SDS011;5591;42.626;23.380;2023-01-23T11:19:48;10.33;;;8.40;;
11076;SDS011;5591;42.626;23.380;2023-01-23T11:22:30;11.80;;;9.83;;
11076;SDS011;5591;42.626;23.380;2023-01-23T11:25:00;14.00;;;11.73;;
11076;SDS011;5591;42.626;23.380;2023-01-23T11:27:55;10.57;;;8.83;;
11076;SDS011;5591;42.626;23.380;2023-01-23T11:30:29;13.90;;;11.77;;
11076;SDS011;5591;42.626;23.380;2023-01-23T11:33:03;9.83;;;8.03;;
11076;SDS011;5591;42.626;23.380;2023-01-23T11:35:46;8.73;;;7.83;;
11076;SDS011;5591;42.626;23.380;2023-01-23T11:38:19;8.77;;;7.30;;
11076;SDS011;5591;42.626;23.380;2023-01-23T11:40:50;8.73;;;7.40;;
11076;SDS011;5591;42.626;23.380;2023-01-23T11:43:17;9.70;;;8.00;;
11076;SDS011;5591;42.626;23.380;2023-01-23T11:45:47;11.17;;;8.37;;
11076;SDS011;5591;42.626;23.380;2023-01-23T11:48:28;9.97;;;8.17;;
11076;SDS011;5591;42.626;23.380;2023-01-23T11:51:14;11.43;;;8.87;;
11076;SDS011;5591;42.626;23.380;2023-01-23T11:53:46;10.23;;;8.63;;
11076;SDS011;5591;42.626;23.380;2023-01-23T11:56:29;10.10;;;8.20;;
11076;SDS011;5591;42.626;23.380;2023-01-23T11:59:12;9.10;;;7.70;;
11076;SDS011;5591;42.626;23.380;2023-01-23T12:02:15;8.80;;;7.90;;
11076;SDS011;5591;42.626;23.380;2023-01-23T12:04:59;10.10;;;8.10;;
11076;SDS011;5591;42.626;23.380;2023-01-23T12:07:35;8.53;;;7.20;;
11076;SDS011;5591;42.626;23.380;2023-01-23T12:10:10;8.73;;;7.77;;
11076;SDS011;5591;42.626;23.380;2023-01-23T12:12:55;9.97;;;8.07;;
11076;SDS011;5591;42.626;23.380;2023-01-23T12:15:34;11.53;;;8.63;;
11076;SDS011;5591;42.626;23.380;2023-01-23T12:18:10;9.13;;;7.30;;
11076;SDS011;5591;42.626;23.380;2023-01-23T12:20:50;9.90;;;8.37;;
11076;SDS011;5591;42.626;23.380;2023-01-23T12:23:31;11.60;;;8.57;;
11076;SDS011;5591;42.626;23.380;2023-01-23T12:26:15;11.13;;;9.23;;
11076;SDS011;5591;42.626;23.380;2023-01-23T12:29:06;10.13;;;8.50;;
11076;SDS011;5591;42.626;23.380;2023-01-23T12:32:01;13.20;;;9.90;;
11076;SDS011;5591;42.626;23.380;2023-01-23T12:34:47;12.00;;;9.20;;
11076;SDS011;5591;42.626;23.380;2023-01-23T12:37:31;11.27;;;8.30;;
11076;SDS011;5591;42.626;23.380;2023-01-23T12:40:12;9.93;;;7.97;;
11076;SDS011;5591;42.626;23.380;2023-01-23T12:42:47;14.07;;;10.70;;
11076;SDS011;5591;42.626;23.380;2023-01-23T12:45:20;13.60;;;10.03;;
11076;SDS011;5591;42.626;23.380;2023-01-23T12:47:51;12.30;;;9.90;;
11076;SDS011;5591;42.626;23.380;2023-01-23T12:50:23;11.90;;;9.10;;
11076;SDS011;5591;42.626;23.380;2023-01-23T12:53:00;9.03;;;7.90;;
11076;SDS011;5591;42.626;23.380;2023-01-23T12:55:33;11.43;;;9.60;;
11076;SDS011;5591;42.626;23.380;2023-01-23T12:58:03;11.33;;;8.50;;
11076;SDS011;5591;42.626;23.380;2023-01-23T13:00:42;15.80;;;12.77;;
11076;SDS011;5591;42.626;23.380;2023-01-23T13:03:24;11.13;;;9.30;;
11076;SDS011;5591;42.626;23.380;2023-01-23T13:05:59;12.00;;;9.60;;
11076;SDS011;5591;42.626;23.380;2023-01-23T13:08:35;9.13;;;7.70;;
11076;SDS011;5591;42.626;23.380;2023-01-23T13:11:09;10.23;;;9.07;;
11076;SDS011;5591;42.626;23.380;2023-01-23T13:13:55;9.33;;;7.97;;
11076;SDS011;5591;42.626;23.380;2023-01-23T13:16:23;14.23;;;10.93;;
11076;SDS011;5591;42.626;23.380;2023-01-23T13:18:54;11.70;;;9.27;;
11076;SDS011;5591;42.626;23.380;2023-01-23T13:21:40;10.67;;;9.23;;
11076;SDS011;5591;42.626;23.380;2023-01-23T13:24:39;11.97;;;9.53;;
11076;SDS011;5591;42.626;23.380;2023-01-23T13:27:38;11.67;;;9.33;;
11076;SDS011;5591;42.626;23.380;2023-01-23T13:36:22;10.03;;;8.50;;
11076;SDS011;5591;42.626;23.380;2023-01-23T13:39:04;12.23;;;10.37;;
11076;SDS011;5591;42.626;23.380;2023-01-23T13:41:48;14.20;;;12.20;;
11076;SDS011;5591;42.626;23.380;2023-01-23T13:44:18;10.27;;;7.60;;
11076;SDS011;5591;42.626;23.380;2023-01-23T13:49:59;9.03;;;7.50;;
11076;SDS011;5591;42.626;23.380;2023-01-23T13:52:31;8.80;;;7.87;;
11076;SDS011;5591;42.626;23.380;2023-01-23T13:55:21;10.20;;;7.37;;
11076;SDS011;5591;42.626;23.380;2023-01-23T13:58:08;9.13;;;7.10;;
11076;SDS011;5591;42.626;23.380;2023-01-23T14:00:37;6.93;;;5.93;;
11076;SDS011;5591;42.626;23.380;2023-01-23T14:03:14;9.43;;;7.80;;
11076;SDS011;5591;42.626;23.380;2023-01-23T14:06:05;10.07;;;7.70;;
11076;SDS011;5591;42.626;23.380;2023-01-23T14:08:33;9.20;;;7.43;;
11076;SDS011;5591;42.626;23.380;2023-01-23T14:11:12;10.07;;;8.20;;
11076;SDS011;5591;42.626;23.380;2023-01-23T14:13:45;8.63;;;7.20;;
11076;SDS011;5591;42.626;23.380;2023-01-23T14:16:14;9.60;;;7.63;;
11076;SDS011;5591;42.626;23.380;2023-01-23T14:18:48;9.47;;;7.60;;
11076;SDS011;5591;42.626;23.380;2023-01-23T14:21:18;10.20;;;8.00;;
11076;SDS011;5591;42.626;23.380;2023-01-23T14:23:47;9.13;;;7.73;;
11076;SDS011;5591;42.626;23.380;2023-01-23T14:26:15;11.90;;;8.37;;
11076;SDS011;5591;42.626;23.380;2023-01-23T14:28:51;11.77;;;8.87;;
11076;SDS011;5591;42.626;23.380;2023-01-23T14:31:24;9.57;;;7.93;;
11076;SDS011;5591;42.626;23.380;2023-01-23T14:33:55;10.67;;;7.30;;
11076;SDS011;5591;42.626;23.380;2023-01-23T14:36:27;10.30;;;8.27;;
11076;SDS011;5591;42.626;23.380;2023-01-23T14:38:54;10.27;;;7.97;;
11076;SDS011;5591;42.626;23.380;2023-01-23T14:41:22;9.07;;;7.13;;
11076;SDS011;5591;42.626;23.380;2023-01-23T14:43:54;8.33;;;6.77;;
11076;SDS011;5591;42.626;23.380;2023-01-23T14:46:31;8.07;;;7.13;;
11076;SDS011;5591;42.626;23.380;2023-01-23T14:49:01;10.73;;;8.13;;
11076;SDS011;5591;42.626;23.380;2023-01-23T14:51:29;9.63;;;7.70;;
11076;SDS011;5591;42.626;23.380;2023-01-23T14:53:57;8.57;;;6.80;;
11076;SDS011;5591;42.626;23.380;2023-01-23T14:56:26;8.40;;;7.10;;
11076;SDS011;5591;42.626;23.380;2023-01-23T14:58:59;9.47;;;7.83;;
11076;SDS011;5591;42.626;23.380;2023-01-23T15:01:31;9.03;;;8.00;;
11076;SDS011;5591;42.626;23.380;2023-01-23T15:03:59;9.93;;;8.00;;
11076;SDS011;5591;42.626;23.380;2023-01-23T15:06:28;8.27;;;7.23;;
11076;SDS011;5591;42.626;23.380;2023-01-23T15:09:03;9.77;;;7.07;;
11076;SDS011;5591;42.626;23.380;2023-01-23T15:11:33;9.00;;;7.60;;
11076;SDS011;5591;42.626;23.380;2023-01-23T15:14:00;8.33;;;6.70;;
11076;SDS011;5591;42.626;23.380;2023-01-23T15:16:28;8.03;;;6.90;;
11076;SDS011;5591;42.626;23.380;2023-01-23T15:19:01;8.30;;;6.67;;
11076;SDS011;5591;42.626;23.380;2023-01-23T15:21:32;8.47;;;6.80;;
11076;SDS011;5591;42.626;23.380;2023-01-23T15:24:04;7.20;;;5.90;;
11076;SDS011;5591;42.626;23.380;2023-01-23T15:26:42;9.23;;;6.30;;
11076;SDS011;5591;42.626;23.380;2023-01-23T15:29:17;7.53;;;6.30;;
11076;SDS011;5591;42.626;23.380;2023-01-23T15:31:46;7.40;;;6.00;;
11076;SDS011;5591;42.626;23.380;2023-01-23T15:34:22;7.97;;;6.50;;
11076;SDS011;5591;42.626;23.380;2023-01-23T15:36:52;7.00;;;6.30;;
11076;SDS011;5591;42.626;23.380;2023-01-23T15:39:23;7.00;;;6.30;;
11076;SDS011;5591;42.626;23.380;2023-01-23T15:41:53;7.40;;;5.93;;
11076;SDS011;5591;42.626;23.380;2023-01-23T15:44:22;6.20;;;5.60;;
11076;SDS011;5591;42.626;23.380;2023-01-23T15:46:52;7.10;;;5.60;;
11076;SDS011;5591;42.626;23.380;2023-01-23T15:49:19;10.00;;;6.70;;
11076;SDS011;5591;42.626;23.380;2023-01-23T15:51:46;9.37;;;6.83;;
11076;SDS011;5591;42.626;23.380;2023-01-23T15:54:15;7.50;;;6.57;;
11076;SDS011;5591;42.626;23.380;2023-01-23T15:56:48;8.53;;;7.30;;
11076;SDS011;5591;42.626;23.380;2023-01-23T15:59:15;8.53;;;6.83;;
11076;SDS011;5591;42.626;23.380;2023-01-23T16:01:43;8.97;;;7.70;;
11076;SDS011;5591;42.626;23.380;2023-01-23T16:04:11;9.73;;;7.20;;
11076;SDS011;5591;42.626;23.380;2023-01-23T16:06:38;12.30;;;9.00;;
11076;SDS011;5591;42.626;23.380;2023-01-23T16:09:05;12.77;;;10.00;;
11076;SDS011;5591;42.626;23.380;2023-01-23T16:11:33;9.60;;;7.30;;
11076;SDS011;5591;42.626;23.380;2023-01-23T16:14:02;12.00;;;9.13;;
11076;SDS011;5591;42.626;23.380;2023-01-23T16:16:29;11.03;;;7.53;;
11076;SDS011;5591;42.626;23.380;2023-01-23T16:18:55;9.33;;;6.93;;
11076;SDS011;5591;42.626;23.380;2023-01-23T16:21:26;8.83;;;7.00;;
11076;SDS011;5591;42.626;23.380;2023-01-23T16:23:55;9.17;;;7.27;;
11076;SDS011;5591;42.626;23.380;2023-01-23T16:26:24;9.50;;;6.83;;